Terminal Aerodrome Forecast
Issued by NWS Missoula, MT

Home | Current Version | Previous Version | Text Only | Print | Product List | Glossary On
Versions: 1 2 3 4 5 6 7 8 9
000
FTUS45 KMSO 271130
TAFGPI
TAF
KGPI 271130Z 2712/2812 00000KT 6SM -SN BR BKN035 OVC050
     FM271600 19003KT 4SM -SN BR SCT008 OVC025
     FM280000 18004KT 2SM -SN BR SCT006 OVC015=

USA.gov is the U.S. government's official web portal to all federal, state and local government web resources and services.